Latest Weather Observations for Coles Point

IDS60801

Issued at 10:31 am CDT Friday 30 January 2015 (issued every 30 minutes, with the page automatically refreshed every 10 minutes)

About weather observations | Map of weather stations | Latest weather observations for SA | Other Formats
Station Details ID: 018191 Name: COLES POINT Lat: -34.37 Lon: 135.37 Height: 28.0 m
Data from the previous 72 hours. | See also: Recent months at Coles Point
Date/Time
CDT
Temp
°C
App
Temp
°C
Dew
Point
Rel
Hum
%
Delta-T
°C
Wind Press
QNH
hPa
Press
MSL
hPa
Rain
since 9 am
mm
Dir
 
Spd
km/h
Gust
km/h
Spd
kts
Gust
kts
30/10:30am 25.1 21.9 13.0 47 7.0 ENE 22 33 12 18 1015.6 1015.5 0.0
30/10:00am 24.2 21.5 13.4 51 6.3 E 20 28 11 15 1015.9 1015.8 0.0
30/09:30am 22.7 20.7 14.0 58 5.1 ESE 17 24 9 13 1016.0 1015.9 0.0
30/09:00am 21.5 19.4 13.7 61 4.5 E 17 24 9 13 1016.1 1016.0 0.0
30/08:30am 20.1 20.5 13.8 67 3.6 E 4 7 2 4 1016.1 1016.0 0.0
30/08:00am 19.1 19.5 13.7 71 3.1 SE 4 7 2 4 1015.9 1015.8 0.0
30/07:30am 17.8 17.1 13.3 75 2.5 ESE 9 15 5 8 1015.6 1015.5 0.0
30/07:00am 16.8 16.2 13.5 81 1.9 SE 9 13 5 7 1015.4 1015.3 0.0
30/06:30am 16.6 15.9 13.3 81 1.8 ESE 9 17 5 9 1015.3 1015.2 0.0
30/06:00am 16.6 15.6 13.3 81 1.8 SE 11 15 6 8 1014.9 1014.8 0.0
30/05:30am 16.7 15.6 13.0 79 2.1 SE 11 15 6 8 1014.7 1014.6 0.0
30/05:00am 14.5 14.3 11.8 84 1.5 ESE 4 4 2 2 1014.6 1014.5 0.0
30/04:30am 16.2 14.6 12.7 80 1.9 E 13 17 7 9 1014.6 1014.5 0.0
30/04:00am 16.6 14.2 12.6 77 2.2 ESE 17 20 9 11 1014.5 1014.4 0.0
30/03:30am 16.6 15.7 12.6 77 2.2 ESE 9 19 5 10 1014.7 1014.6 0.0
30/03:00am 15.5 16.1 11.9 79 2.0 CALM 0 0 0 0 1015.0 1014.9 0.0
30/02:30am 16.6 15.6 12.4 76 2.3 ESE 9 15 5 8 1015.3 1015.2 0.0
30/02:00am 17.0 15.4 12.7 76 2.4 E 13 19 7 10 1015.3 1015.2 0.0
30/01:30am 17.2 16.7 12.7 75 2.5 ENE 7 15 4 8 1015.5 1015.4 0.0
30/01:00am 17.9 15.2 13.4 75 2.5 ESE 20 32 11 17 1015.4 1015.3 0.0
30/12:30am 18.3 15.4 13.0 71 3.0 ESE 20 28 11 15 1015.4 1015.3 0.0
30/12:00am 18.5 15.7 12.5 68 3.3 ESE 19 28 10 15 1015.5 1015.4 0.0
 
Date/Time
CDT
Temp
°C
App
Temp
°C
Dew
Point
Rel
Hum
%
Delta-T
°C
Wind Press
QNH
hPa
Press
MSL
hPa
Rain
since 9 am
mm
Dir
 
Spd
km/h
Gust
km/h
Spd
kts
Gust
kts
29/11:30pm 19.0 15.6 11.3 61 4.2 SE 20 28 11 15 1015.6 1015.5 0.0
29/11:00pm 19.1 16.0 9.0 52 5.3 SE 15 22 8 12 1015.8 1015.7 0.0
29/10:30pm 19.2 17.1 6.0 42 6.5 SSE 6 11 3 6 1016.0 1015.9 0.0
29/10:00pm 20.4 15.8 6.7 41 6.9 SE 20 26 11 14 1015.7 1015.6 0.0
29/09:30pm 21.1 15.9 5.5 36 7.7 SE 22 30 12 16 1015.6 1015.5 0.0
29/09:00pm 21.1 16.8 5.1 35 7.9 SE 17 20 9 11 1015.5 1015.4 0.0
29/08:30pm 22.7 17.9 4.7 31 8.9 ESE 19 24 10 13 1015.3 1015.2 0.0
29/08:00pm 24.1 18.3 4.5 28 9.7 ESE 24 30 13 16 1015.2 1015.1 0.0
29/07:30pm 25.3 19.9 4.4 26 10.5 ESE 22 32 12 17 1015.0 1014.9 0.0
29/07:00pm 26.1 20.2 4.0 24 11.0 SE 24 30 13 16 1014.7 1014.6 0.0
29/06:30pm 26.9 20.5 3.4 22 11.7 ESE 26 35 14 19 1014.5 1014.4 0.0
29/06:00pm 27.6 21.7 5.8 25 11.3 ESE 26 35 14 19 1014.4 1014.3 0.0
29/05:30pm 28.4 22.4 5.3 23 12.0 ESE 26 39 14 21 1014.3 1014.2 0.0
29/05:00pm 28.8 23.6 5.6 23 12.1 SE 22 39 12 21 1014.4 1014.3 0.0
29/04:30pm 30.1 25.5 5.4 21 12.9 ESE 19 28 10 15 1014.6 1014.5 0.0
29/04:00pm 29.6 24.6 6.3 23 12.4 ESE 22 33 12 18 1014.8 1014.7 0.0
29/03:30pm 29.4 24.3 6.1 23 12.3 ESE 22 33 12 18 1015.1 1015.0 0.0
29/03:00pm 30.0 25.6 7.2 24 12.3 ESE 20 39 11 21 1015.2 1015.1 0.0
29/02:30pm 29.6 25.8 7.5 25 12.0 E 17 30 9 16 1015.5 1015.4 0.0
29/02:00pm 29.9 26.2 6.5 23 12.5 E 15 30 8 16 1015.7 1015.6 0.0
29/01:30pm 28.7 24.1 5.5 23 12.1 E 19 26 10 14 1015.9 1015.8 0.0
29/01:00pm 29.1 25.6 8.7 28 11.2 ESE 17 30 9 16 1016.1 1016.0 0.0
29/12:30pm 28.4 24.7 10.1 32 10.3 ESE 20 35 11 19 1016.2 1016.1 0.0
29/12:00pm 27.8 23.7 11.4 36 9.4 E 24 35 13 19 1016.4 1016.3 0.0
29/11:30am 27.1 22.9 11.2 37 9.0 E 24 33 13 18 1016.7 1016.6 0.0
29/11:00am 26.5 23.1 12.5 41 8.1 E 22 32 12 17 1016.9 1016.8 0.0
29/10:30am 25.2 21.1 12.8 46 7.2 E 26 37 14 20 1016.9 1016.8 0.0
29/10:00am 24.0 19.7 13.2 50 6.3 E 28 35 15 19 1016.7 1016.6 0.0
29/09:30am 22.6 17.5 13.1 55 5.5 E 32 39 17 21 1016.6 1016.5 0.0
29/09:00am 21.4 17.0 14.1 63 4.2 ESE 30 43 16 23 1016.5 1016.4 0.0
29/08:30am 20.6 18.2 13.8 65 3.9 ESE 19 28 10 15 1016.6 1016.5 0.0
29/08:00am 18.5 18.8 14.4 77 2.4 WNW 6 13 3 7 1016.7 1016.6 0.0
29/07:30am 17.5 16.4 14.4 82 1.8 ESE 13 20 7 11 1016.2 1016.1 0.0
29/07:00am 16.0 16.4 13.8 87 1.2 SE 4 6 2 3 1016.2 1016.1 0.0
29/06:30am 15.6 14.6 13.4 87 1.2 ESE 11 13 6 7 1016.0 1015.9 0.0
29/06:00am 16.2 15.2 13.5 84 1.5 ESE 11 15 6 8 1015.9 1015.8 0.0
29/05:30am 16.1 15.1 13.4 84 1.5 SE 11 17 6 9 1015.7 1015.6 0.0
29/05:00am 15.7 15.2 12.5 81 1.8 ENE 7 11 4 6 1015.7 1015.6 0.0
29/04:30am 15.9 13.9 12.8 82 1.7 SE 15 22 8 12 1015.8 1015.7 0.0
29/04:00am 15.4 14.2 12.7 84 1.5 SSE 11 15 6 8 1015.9 1015.8 0.0
29/03:30am 15.8 14.5 12.5 81 1.8 SSE 11 15 6 8 1016.1 1016.0 0.0
29/03:00am 14.8 13.4 12.1 84 1.5 ESE 11 17 6 9 1016.3 1016.2 0.0
29/02:30am 14.3 12.2 11.3 82 1.6 E 13 19 7 10 1016.5 1016.4 0.0
29/02:00am 13.7 11.9 10.9 83 1.5 SE 11 13 6 7 1016.9 1016.8 0.0
29/01:30am 14.6 12.2 11.4 81 1.7 SSE 15 19 8 10 1017.1 1017.0 0.0
29/01:00am 14.4 12.6 10.8 79 1.9 SSE 11 15 6 8 1017.4 1017.4 0.0
29/12:30am 14.6 13.1 10.6 77 2.1 SE 9 13 5 7 1017.6 1017.6 0.0
29/12:00am 14.6 12.0 10.6 77 2.1 SE 15 17 8 9 1017.5 1017.5 0.0
 
Date/Time
CDT
Temp
°C
App
Temp
°C
Dew
Point
Rel
Hum
%
Delta-T
°C
Wind Press
QNH
hPa
Press
MSL
hPa
Rain
since 9 am
mm
Dir
 
Spd
km/h
Gust
km/h
Spd
kts
Gust
kts
28/11:30pm 15.2 13.8 11.0 76 2.2 SSE 9 11 5 6 1017.7 1017.7 0.0
28/11:00pm 16.2 13.5 11.6 74 2.5 SSE 17 28 9 15 1017.7 1017.7 0.0
28/10:30pm 16.6 13.0 11.7 73 2.7 SSE 22 30 12 16 1017.6 1017.6 0.0
28/10:00pm 16.6 13.5 11.5 72 2.8 SE 19 26 10 14 1017.6 1017.6 0.0
28/09:30pm 17.1 13.8 11.6 70 3.0 SE 20 32 11 17 1017.5 1017.5 0.0
28/09:00pm 17.8 14.8 10.7 63 3.8 SE 17 24 9 13 1017.5 1017.5 0.0
28/08:30pm 18.7 15.0 10.3 58 4.5 SSE 20 32 11 17 1017.1 1017.0 0.0
28/08:00pm 20.2 15.4 10.3 53 5.4 SE 26 35 14 19 1016.8 1016.7 0.0
28/07:30pm 21.3 16.5 8.9 45 6.6 SE 24 35 13 19 1016.6 1016.5 0.0
28/07:00pm 22.0 17.2 10.2 47 6.4 SE 26 39 14 21 1016.4 1016.3 0.0
28/06:30pm 22.7 17.2 7.7 38 7.8 ESE 26 37 14 20 1016.3 1016.2 0.0
28/06:00pm 23.4 17.6 7.9 37 8.2 ESE 28 39 15 21 1016.4 1016.3 0.0
28/05:30pm 23.2 17.8 8.1 38 8.0 SE 26 41 14 22 1016.6 1016.5 0.0
28/05:00pm 23.9 18.0 7.5 35 8.6 ESE 28 41 15 22 1016.9 1016.8 0.0
28/04:30pm 23.1 16.3 6.8 35 8.4 ESE 32 41 17 22 1016.9 1016.8 0.0
28/04:00pm 23.7 17.6 8.2 37 8.2 ESE 30 43 16 23 1017.1 1017.0 0.0
28/03:39pm 22.8 17.3 9.2 42 7.3 ESE 28 46 15 25 1017.2 1017.1 0.0
28/03:30pm 23.2 17.3 8.9 40 7.7 ESE 30 41 16 22 1017.3 1017.3 0.0
28/03:00pm 22.9 17.3 8.6 40 7.6 ESE 28 43 15 23 1017.6 1017.6 0.0
28/02:30pm 22.9 16.6 7.4 37 8.1 SE 30 39 16 21 1017.7 1017.7 0.0
28/02:00pm 22.9 17.1 7.8 38 7.9 ESE 28 41 15 22 1017.9 1017.9 0.0
28/01:30pm 22.1 16.7 7.9 40 7.4 ESE 26 37 14 20 1018.4 1018.3 0.0
28/01:00pm 22.0 16.3 8.2 41 7.3 SE 28 41 15 22 1018.5 1018.4 0.0
28/12:30pm 22.0 16.9 7.8 40 7.4 ESE 24 37 13 20 1018.9 1018.8 0.0
28/12:00pm 21.4 16.3 7.6 41 7.1 ESE 24 37 13 20 1018.9 1018.8 0.0
28/11:30am 21.0 16.2 8.9 46 6.4 ESE 24 35 13 19 1019.1 1019.0 0.0
28/11:00am 20.2 15.8 8.8 48 6.0 ESE 22 33 12 18 1019.4 1019.3 0.0
28/10:30am 19.8 15.5 9.4 51 5.5 ESE 22 32 12 17 1019.5 1019.4 0.0
28/10:00am 19.1 14.4 9.3 53 5.2 SE 24 33 13 18 1019.4 1019.3 0.0
28/09:30am 18.3 14.5 9.1 55 4.8 SE 19 30 10 16 1019.2 1019.1 0.0
28/09:00am 18.0 14.3 9.4 57 4.5 SE 19 24 10 13 1019.1 1019.0 0.0
28/08:30am 17.6 13.8 9.2 58 4.4 SE 19 30 10 16 1018.8 1018.7 0.0
28/08:00am 16.7 13.7 9.4 62 3.8 SE 15 20 8 11 1018.6 1018.5 0.0
28/07:30am 15.9 12.8 8.9 63 3.6 SSE 15 20 8 11 1018.0 1018.0 0.0
28/07:00am 15.3 12.4 8.3 63 3.5 SSE 13 20 7 11 1017.7 1017.7 0.0
28/06:30am 15.2 12.6 7.7 61 3.7 SE 11 17 6 9 1017.6 1017.6 0.0
28/06:00am 15.7 12.8 8.0 60 3.9 SSE 13 19 7 10 1017.4 1017.4 0.0
28/05:30am 15.9 12.9 7.9 59 4.0 SSE 13 17 7 9 1017.2 1017.1 0.0
28/05:00am 16.2 13.2 7.9 58 4.2 SE 13 19 7 10 1017.3 1017.3 0.0
28/04:30am 16.4 12.2 8.1 58 4.2 ESE 20 30 11 16 1017.4 1017.4 0.0
28/04:00am 16.5 13.4 8.7 60 4.0 SE 15 20 8 11 1017.3 1017.3 0.0
28/03:30am 16.4 12.3 8.6 60 4.0 ESE 20 28 11 15 1017.5 1017.5 0.0
28/03:00am 16.4 12.6 8.9 61 3.9 SE 19 28 10 15 1017.6 1017.6 0.0
28/02:30am 16.1 11.9 8.1 59 4.0 SE 20 33 11 18 1017.7 1017.7 0.0
28/02:00am 16.4 11.6 8.9 61 3.9 SE 24 33 13 18 1017.9 1017.9 0.0
28/01:30am 16.5 11.4 9.2 62 3.8 SE 26 33 14 18 1018.1 1018.1 0.0
28/01:00am 16.5 11.7 8.7 60 4.0 SE 24 33 13 18 1018.5 1018.4 0.0
28/12:30am 16.4 11.7 9.3 63 3.7 SE 24 33 13 18 1018.8 1018.7 0.0
28/12:00am 14.8 11.5 9.6 71 2.7 SE 17 24 9 13 1019.0 1018.9 0.0
 
Date/Time
CDT
Temp
°C
App
Temp
°C
Dew
Point
Rel
Hum
%
Delta-T
°C
Wind Press
QNH
hPa
Press
MSL
hPa
Rain
since 9 am
mm
Dir
 
Spd
km/h
Gust
km/h
Spd
kts
Gust
kts
27/11:30pm 15.0 11.6 9.1 68 3.0 SE 17 22 9 12 1019.4 1019.3 0.0
27/11:00pm 14.9 12.3 9.3 69 2.9 SE 13 17 7 9 1019.4 1019.3 0.0
27/10:30pm 15.4 12.5 9.5 68 3.0 SSE 15 20 8 11 1019.4 1019.3 0.0
27/10:00pm 15.7 12.0 9.4 66 3.3 SSE 19 24 10 13 1019.4 1019.3 0.0
27/09:30pm 16.1 12.2 9.3 64 3.5 SE 20 30 11 16 1019.2 1019.1 0.0
27/09:00pm 16.6 11.5 9.1 61 3.9 SSE 26 33 14 18 1019.2 1019.1 0.0
27/08:30pm 17.3 12.8 8.7 57 4.4 SSE 22 32 12 17 1019.0 1018.9 0.0
27/08:00pm 18.1 12.8 8.4 53 5.0 SSE 26 33 14 18 1018.7 1018.6 0.0
27/07:30pm 18.8 13.2 8.7 52 5.2 SSE 28 35 15 19 1018.0 1018.0 0.0
27/07:00pm 20.1 14.7 8.1 46 6.2 SSE 26 37 14 20 1017.7 1017.7 0.0
27/06:30pm 20.7 14.5 8.0 44 6.6 SSE 30 41 16 22 1017.4 1017.4 0.0
27/06:00pm 20.5 13.8 9.7 50 5.8 S 35 52 19 28 1017.3 1017.3 0.0
27/05:30pm 21.1 13.6 9.4 47 6.2 S 39 48 21 26 1017.1 1017.0 0.0
27/05:00pm 20.2 12.3 9.5 50 5.7 S 41 54 22 29 1016.9 1016.8 0.0
27/04:30pm 21.0 13.4 8.9 46 6.4 S 39 54 21 29 1016.9 1016.8 0.0
27/04:00pm 21.7 13.9 8.2 42 7.1 S 39 50 21 27 1017.1 1017.0 0.0
27/03:30pm 21.4 13.2 8.0 42 7.0 SSW 41 54 22 29 1017.1 1017.0 0.0
27/03:00pm 21.1 13.7 8.4 44 6.7 SSW 37 46 20 25 1017.2 1017.1 0.0
27/02:30pm 21.2 14.0 7.8 42 6.9 SSW 35 54 19 29 1017.6 1017.6 0.0
27/02:00pm 22.1 15.3 7.5 39 7.6 SSW 33 48 18 26 1017.8 1017.8 0.0
27/01:30pm 22.4 16.2 7.8 39 7.6 S 30 43 16 23 1017.9 1017.9 0.0
27/01:00pm 21.7 15.8 7.5 40 7.4 S 28 44 15 24 1018.2 1018.2 0.0
27/12:30pm 22.0 17.8 5.8 35 8.1 SE 17 30 9 16 1018.6 1018.5 0.0
27/12:00pm 20.9 16.2 5.3 36 7.7 SSE 19 33 10 18 1018.8 1018.7 0.0
27/11:30am 20.5 15.6 5.3 37 7.5 SE 20 30 11 16 1018.9 1018.8 0.0
27/11:00am 19.8 15.3 6.2 41 6.8 SE 19 28 10 15 1019.3 1019.2 0.0

Other Formats:

Comma delimited format used in spreadsheet applications
http://www.bom.gov.au/fwo/IDS60801/IDS60801.94658.axf

JavaScript Object Notation format (JSON) in row-major order
http://www.bom.gov.au/fwo/IDS60801/IDS60801.94658.json